createdAt,value
2022-09-15T00:01:15.874Z,99915.97
2022-09-15T00:03:42.150Z,99914.59
2022-09-15T00:06:08.358Z,99918.59
2022-09-15T00:08:34.575Z,99926.03
2022-09-15T00:11:00.814Z,99925.19
2022-09-15T00:13:27.035Z,99925.19
2022-09-15T00:15:53.227Z,99918.88
2022-09-15T00:18:19.434Z,99914.47
2022-09-15T00:20:45.616Z,99919.19
2022-09-15T00:23:11.846Z,99910.22
2022-09-15T00:25:38.046Z,99903.22
2022-09-15T00:28:04.247Z,99899.81
2022-09-15T00:30:30.484Z,99904.53
2022-09-15T00:32:56.735Z,99902.84
2022-09-15T00:35:23.026Z,99901.28
2022-09-15T00:37:49.314Z,99904.13
2022-09-15T00:40:15.559Z,99910.56
2022-09-15T00:42:41.838Z,99900.56
2022-09-15T00:45:08.029Z,99901.44
2022-09-15T00:47:34.255Z,99906.84
2022-09-15T00:50:00.461Z,99904.13
2022-09-15T00:52:26.681Z,99902.56
2022-09-15T00:54:52.876Z,99924.84
2022-09-15T00:57:19.080Z,99917.28
2022-09-15T00:59:45.271Z,99924.00
2022-09-15T01:02:11.513Z,99919.19
2022-09-15T01:04:37.784Z,99920.78
2022-09-15T01:07:04.001Z,99918.38
2022-09-15T01:09:30.237Z,99915.94
2022-09-15T01:11:56.450Z,99916.09
2022-09-15T01:14:22.667Z,99910.84
2022-09-15T01:16:48.977Z,99911.94
2022-09-15T01:19:15.270Z,99912.09
2022-09-15T01:21:41.493Z,99909.81
2022-09-15T01:24:07.697Z,99912.78
2022-09-15T01:26:33.916Z,99919.38
2022-09-15T01:29:00.155Z,99921.50
2022-09-15T01:31:26.400Z,99922.50
2022-09-15T01:33:52.632Z,99927.38
2022-09-15T01:36:18.837Z,99932.19
2022-09-15T01:38:45.045Z,99936.06
2022-09-15T01:41:11.272Z,99932.78
2022-09-15T01:43:37.464Z,99937.66
2022-09-15T01:46:03.749Z,99934.34
2022-09-15T01:48:29.992Z,99937.06
2022-09-15T01:50:56.193Z,99930.94
2022-09-15T01:53:22.387Z,99931.25
2022-09-15T01:55:48.613Z,99926.81
2022-09-15T01:58:14.807Z,99931.50
2022-09-15T02:00:41.029Z,99928.78
2022-09-15T02:03:07.237Z,99927.25
2022-09-15T02:05:33.559Z,99924.81
2022-09-15T02:07:59.781Z,99927.50
2022-09-15T02:10:26.068Z,99925.09
2022-09-15T02:12:52.287Z,99927.78
2022-09-15T02:15:18.536Z,99933.34
2022-09-15T02:17:44.740Z,99921.97
2022-09-15T02:20:11.028Z,99927.69
2022-09-15T02:22:37.207Z,99941.47
2022-09-15T02:25:03.458Z,99938.91
2022-09-15T02:27:29.646Z,99937.06
2022-09-15T02:29:55.852Z,99929.94
2022-09-15T02:32:22.066Z,99930.94
2022-09-15T02:34:48.270Z,99927.66
2022-09-15T02:37:14.493Z,99930.22
2022-09-15T02:39:40.700Z,99932.06
2022-09-15T02:42:06.950Z,99921.22
2022-09-15T02:44:33.252Z,99920.38
2022-09-15T02:46:59.478Z,99919.53
2022-09-15T02:49:25.674Z,99915.72
2022-09-15T02:51:51.889Z,99911.84
2022-09-15T02:54:18.083Z,99933.34
2022-09-15T02:56:44.312Z,99933.63
2022-09-15T02:59:10.539Z,99935.50
2022-09-15T03:01:36.833Z,99945.72
2022-09-15T03:04:03.046Z,99947.72
2022-09-15T03:06:29.315Z,99949.75
2022-09-15T03:08:55.515Z,99938.19
2022-09-15T03:11:21.739Z,99943.59
2022-09-15T03:13:47.945Z,99938.19
2022-09-15T03:16:14.432Z,99936.59
2022-09-15T03:18:40.703Z,99938.59
2022-09-15T03:21:06.931Z,99939.59
2022-09-15T03:23:33.183Z,99941.47
2022-09-15T03:25:59.412Z,99926.91
2022-09-15T03:28:25.610Z,99935.03
2022-09-15T03:30:51.812Z,99935.03
2022-09-15T03:33:18.101Z,99941.59
2022-09-15T03:35:44.311Z,99944.31
2022-09-15T03:38:10.578Z,99931.91
2022-09-15T03:40:36.790Z,99940.16
2022-09-15T03:43:03.082Z,99939.28
2022-09-15T03:45:29.458Z,99938.59
2022-09-15T03:47:55.697Z,99933.47
2022-09-15T03:50:21.938Z,99934.31
2022-09-15T03:52:48.167Z,99940.72
2022-09-15T03:55:14.377Z,99935.44
2022-09-15T03:57:40.596Z,99938.28
2022-09-15T04:00:07.065Z,99933.00
2022-09-15T04:02:33.378Z,99935.84
2022-09-15T04:04:59.643Z,99932.44
2022-09-15T04:07:25.856Z,99936.28
2022-09-15T04:09:52.148Z,99937.41
2022-09-15T04:12:18.388Z,99940.25
2022-09-15T04:14:44.597Z,99943.09
2022-09-15T04:17:10.806Z,99933.25
2022-09-15T04:19:37.022Z,99942.53
2022-09-15T04:22:03.224Z,99945.34
2022-09-15T04:24:29.455Z,99940.06
2022-09-15T04:26:55.807Z,99932.25
2022-09-15T04:29:22.016Z,99933.50
2022-09-15T04:31:48.250Z,99935.38
2022-09-15T04:34:14.506Z,99942.63
2022-09-15T04:36:40.740Z,99945.34
2022-09-15T04:39:07.130Z,99940.06
2022-09-15T04:41:33.349Z,99941.06
2022-09-15T04:43:59.558Z,99943.75
2022-09-15T04:46:25.833Z,99942.91
2022-09-15T04:48:52.106Z,99937.75
2022-09-15T04:51:18.313Z,99932.34
2022-09-15T04:53:44.633Z,99934.34
2022-09-15T04:56:10.914Z,99932.47
2022-09-15T04:58:37.119Z,99933.50
2022-09-15T05:01:03.459Z,99936.19
2022-09-15T05:03:29.712Z,99943.28
2022-09-15T05:05:55.980Z,99928.94
2022-09-15T05:08:22.318Z,99929.06
2022-09-15T05:10:48.567Z,99931.78
2022-09-15T05:13:14.775Z,99941.75
2022-09-15T05:15:41.179Z,99936.34
2022-09-15T05:18:07.481Z,99931.03
2022-09-15T05:20:33.964Z,99934.75
2022-09-15T05:23:00.169Z,99931.03
2022-09-15T05:25:26.441Z,99939.16
2022-09-15T05:27:52.646Z,99942.59
2022-09-15T05:33:05.095Z,99946.88
2022-09-15T05:35:31.334Z,99942.16
2022-09-15T05:37:57.549Z,99942.91
2022-09-15T05:40:23.816Z,99942.78
2022-09-15T05:42:50.056Z,99943.34
2022-09-15T05:45:16.262Z,99932.53
2022-09-15T05:47:42.474Z,99933.97
2022-09-15T05:50:08.689Z,99936.38
2022-09-15T05:52:34.888Z,99936.09
2022-09-15T05:55:01.128Z,99937.53
2022-09-15T05:57:27.320Z,99929.16
2022-09-15T05:59:53.520Z,99922.34
2022-09-15T06:02:19.816Z,99930.63
2022-09-15T06:04:46.068Z,99933.78
2022-09-15T06:07:12.278Z,99935.91
2022-09-15T06:09:38.508Z,99944.31
2022-09-15T06:12:04.735Z,99943.59
2022-09-15T06:14:30.985Z,99949.19
2022-09-15T06:16:57.198Z,99953.88
2022-09-15T06:19:23.432Z,99952.47
2022-09-15T06:21:49.624Z,99954.88
2022-09-15T06:24:15.887Z,99954.59
2022-09-15T06:26:42.104Z,99952.47
2022-09-15T06:29:08.338Z,99954.72
2022-09-15T06:31:34.572Z,99956.00
2022-09-15T06:34:00.795Z,99957.28
2022-09-15T06:36:26.988Z,99950.31
2022-09-15T06:38:53.275Z,99940.47
2022-09-15T06:41:19.575Z,99943.03
2022-09-15T06:43:45.802Z,99946.44
2022-09-15T06:46:12.096Z,99939.84
2022-09-15T06:48:38.361Z,99946.34
2022-09-15T06:51:04.621Z,99936.19
2022-09-15T06:53:30.852Z,99938.25
2022-09-15T06:55:57.048Z,99934.47
2022-09-15T06:58:23.244Z,99944.56
2022-09-15T07:00:49.504Z,99932.78
2022-09-15T07:03:15.881Z,99940.88
2022-09-15T07:05:42.132Z,99937.94
2022-09-15T07:08:08.358Z,99931.53
2022-09-15T07:10:34.552Z,99932.94
2022-09-15T07:13:00.785Z,99934.47
2022-09-15T07:15:27.005Z,99925.47
2022-09-15T07:17:53.201Z,99931.16
2022-09-15T07:20:19.422Z,99933.44
2022-09-15T07:22:45.613Z,99936.22
2022-09-15T07:25:11.818Z,99943.28
2022-09-15T07:27:38.003Z,99937.00
2022-09-15T07:30:04.248Z,99938.56
2022-09-15T07:32:30.542Z,99944.34
2022-09-15T07:34:58.455Z,99946.00
2022-09-15T07:37:24.859Z,99947.75
2022-09-15T07:39:51.175Z,99954.75
2022-09-15T07:42:17.420Z,99962.09
2022-09-15T07:44:43.649Z,99963.31
2022-09-15T07:47:09.875Z,99956.63
2022-09-15T07:49:36.104Z,99965.31
2022-09-15T07:52:02.296Z,99961.59
2022-09-15T07:54:28.529Z,99961.69
2022-09-15T07:56:54.727Z,99965.34
2022-09-15T07:59:20.962Z,99970.25
2022-09-15T08:01:47.200Z,99975.00
2022-09-15T08:04:13.473Z,99976.38
2022-09-15T08:06:39.699Z,99986.06
2022-09-15T08:09:05.933Z,99973.13
2022-09-15T08:11:32.186Z,99978.94
2022-09-15T08:13:58.405Z,99969.06
2022-09-15T08:16:24.694Z,99967.56
2022-09-15T08:18:51.149Z,99962.81
2022-09-15T08:21:17.385Z,99962.97
2022-09-15T08:23:43.597Z,99968.34
2022-09-15T08:26:13.785Z,99976.66
2022-09-15T08:28:40.472Z,99973.69
2022-09-15T08:31:06.698Z,99969.41
2022-09-15T08:33:33.000Z,99979.59
2022-09-15T08:35:59.181Z,99979.94
2022-09-15T08:38:25.444Z,99966.84
2022-09-15T08:40:51.655Z,99978.78
2022-09-15T08:43:17.955Z,99979.28
2022-09-15T08:45:44.184Z,99981.19
2022-09-15T08:48:10.402Z,99988.03
2022-09-15T08:50:36.606Z,99975.44
2022-09-15T08:53:02.821Z,99982.41
2022-09-15T08:55:29.063Z,99972.25
2022-09-15T08:57:55.335Z,99980.09
2022-09-15T09:00:21.526Z,99983.00
2022-09-15T09:02:47.785Z,99990.88
2022-09-15T09:05:14.068Z,99979.81
2022-09-15T09:07:40.270Z,99977.63
2022-09-15T09:10:06.486Z,99981.22
2022-09-15T09:12:32.676Z,99983.34
2022-09-15T09:14:59.025Z,99978.75
2022-09-15T09:17:25.218Z,99981.00
2022-09-15T09:19:51.456Z,99986.81
2022-09-15T09:22:17.682Z,99984.75
2022-09-15T09:24:43.881Z,99979.66
2022-09-15T09:27:10.074Z,99968.44
2022-09-15T09:29:36.310Z,99973.69
2022-09-15T09:32:02.539Z,99976.09
2022-09-15T09:34:28.767Z,99974.59
2022-09-15T09:36:54.981Z,99976.59
2022-09-15T09:39:21.174Z,99968.44
2022-09-15T09:41:47.408Z,99965.56
2022-09-15T09:44:13.630Z,99968.66
2022-09-15T09:46:39.957Z,99961.00
2022-09-15T09:49:06.253Z,99963.88
2022-09-15T09:51:32.459Z,99959.31
2022-09-15T09:53:58.681Z,99954.91
2022-09-15T09:56:24.969Z,99964.63
2022-09-15T09:58:51.173Z,99970.94
2022-09-15T10:01:17.466Z,99962.91
2022-09-15T10:03:43.684Z,99971.94
2022-09-15T10:06:09.887Z,99970.78
2022-09-15T10:08:36.078Z,99963.47
2022-09-15T10:11:02.357Z,99962.81
2022-09-15T10:13:28.562Z,99962.13
2022-09-15T10:15:54.784Z,99968.44
2022-09-15T10:18:20.976Z,99964.13
2022-09-15T10:20:47.169Z,99964.84
2022-09-15T10:23:13.370Z,99961.50
2022-09-15T10:25:58.076Z,99958.09
2022-09-15T10:28:24.652Z,99961.50
2022-09-15T10:30:50.888Z,99954.19
2022-09-15T10:33:17.106Z,99964.25
2022-09-15T10:35:43.334Z,99963.03
2022-09-15T10:38:09.574Z,99957.78
2022-09-15T10:40:35.835Z,99966.34
2022-09-15T10:43:02.048Z,99958.78
2022-09-15T10:45:28.276Z,99962.06
2022-09-15T10:47:54.591Z,99963.78
2022-09-15T10:50:20.812Z,99952.16
2022-09-15T10:52:47.066Z,99957.25
2022-09-15T10:55:13.324Z,99943.75
2022-09-15T10:57:39.581Z,99949.72
2022-09-15T11:00:05.880Z,99937.56
2022-09-15T11:02:32.247Z,99934.81
2022-09-15T11:04:58.558Z,99932.34
2022-09-15T11:07:24.974Z,99937.63
2022-09-15T11:09:51.253Z,99948.44
2022-09-15T11:12:17.810Z,99947.25
2022-09-15T11:14:44.017Z,99939.94
2022-09-15T11:17:10.228Z,99941.03
2022-09-15T11:19:36.703Z,99937.66
2022-09-15T11:22:02.942Z,99943.63
2022-09-15T11:24:29.138Z,99938.84
2022-09-15T11:26:55.358Z,99937.47
2022-09-15T11:29:21.575Z,99927.09
2022-09-15T11:31:47.882Z,99929.00
2022-09-15T11:34:14.232Z,99929.16
2022-09-15T11:36:40.511Z,99923.72
2022-09-15T11:39:07.016Z,99924.72
2022-09-15T11:41:33.335Z,99929.53
2022-09-15T11:43:59.517Z,99931.88
